Time;durP1;ratioP1;P1;durP2;ratioP2;P2;SDS_P1;SDS_P2;PMS_P1;PMS_P2;Temp;Humidity;BMP_temperature;BMP_pressure;BME280_temperature;BME280_humidity;BME280_pressure;Samples;Min_cycle;Max_cycle;Signal;HPM_P1;HPM_P2
2022/08/02 00:02:23;;;;;;;2.67;0.70;;;16.50;75.10;;;;;;5071955;28;20064;-84
2022/08/02 00:04:49;;;;;;;2.88;0.88;;;16.50;75.30;;;;;;5073257;28;20119;-83
2022/08/02 00:07:16;;;;;;;3.22;0.93;;;16.50;75.60;;;;;;5071984;28;20048;-83
2022/08/02 00:09:42;;;;;;;2.65;0.75;;;16.50;76.00;;;;;;5073174;28;20028;-84
2022/08/02 00:12:08;;;;;;;4.78;0.60;;;16.40;76.20;;;;;;5073195;28;20122;-83
2022/08/02 00:14:35;;;;;;;8.55;0.98;;;16.40;76.50;;;;;;5073178;28;20464;-84
2022/08/02 00:17:00;;;;;;;2.70;0.70;;;16.40;76.70;;;;;;5072829;28;20028;-84
2022/08/02 00:19:26;;;;;;;3.00;0.63;;;16.30;76.90;;;;;;5055239;28;20040;-84
2022/08/02 00:21:52;;;;;;;1.50;0.60;;;16.30;77.30;;;;;;5073303;28;20396;-84
2022/08/02 00:24:17;;;;;;;4.47;0.77;;;16.30;77.70;;;;;;5055142;28;20491;-84
2022/08/02 00:26:43;;;;;;;3.25;0.70;;;16.30;78.10;;;;;;5073365;28;20029;-83
2022/08/02 00:29:09;;;;;;;3.55;0.82;;;16.30;78.50;;;;;;5038443;28;20028;-84
2022/08/02 00:31:34;;;;;;;3.03;0.90;;;16.20;78.70;;;;;;5055016;28;20035;-84
2022/08/02 00:34:00;;;;;;;5.78;0.70;;;16.20;79.70;;;;;;5054919;28;20477;-84
2022/08/02 00:36:26;;;;;;;3.30;1.10;;;16.20;79.40;;;;;;5055013;28;20108;-84
2022/08/02 00:38:51;;;;;;;3.75;0.55;;;16.20;79.70;;;;;;5074182;28;20054;-84
2022/08/02 00:41:20;;;;;;;5.95;1.00;;;16.20;79.90;;;;;;5076670;28;20032;-84
2022/08/02 00:43:47;;;;;;;4.15;0.85;;;16.20;80.10;;;;;;5075244;28;20028;-84
2022/08/02 00:46:14;;;;;;;7.63;1.15;;;16.20;80.00;;;;;;5058826;28;20033;-84
2022/08/02 00:48:40;;;;;;;4.20;1.00;;;16.20;79.90;;;;;;5075187;28;20079;-84
2022/08/02 00:51:05;;;;;;;5.75;1.30;;;16.20;79.80;;;;;;5075484;28;20033;-84
2022/08/02 00:53:31;;;;;;;3.28;0.88;;;16.20;79.70;;;;;;5075166;28;20063;-84
2022/08/02 00:55:57;;;;;;;4.03;0.90;;;16.20;79.70;;;;;;5058538;28;20052;-84
2022/08/02 00:58:23;;;;;;;6.63;1.20;;;16.10;79.60;;;;;;5075158;28;20452;-84
2022/08/02 01:00:48;;;;;;;5.47;0.98;;;16.10;79.60;;;;;;5075153;28;20029;-84
2022/08/02 01:03:14;;;;;;;4.80;0.98;;;16.00;79.50;;;;;;5058455;28;20392;-84
2022/08/02 01:05:40;;;;;;;4.50;1.10;;;16.00;79.50;;;;;;5058207;28;20056;-84
2022/08/02 01:08:06;;;;;;;5.50;1.00;;;16.00;79.70;;;;;;5041454;28;20087;-84
2022/08/02 01:10:31;;;;;;;5.72;0.80;;;16.00;80.10;;;;;;5075107;28;20032;-84
2022/08/02 01:12:57;;;;;;;3.03;0.80;;;15.90;80.30;;;;;;5076208;28;20051;-83
2022/08/02 01:15:24;;;;;;;3.67;0.85;;;15.90;80.40;;;;;;5058263;28;20048;-84
2022/08/02 01:18:03;;;;;;;2.80;0.80;;;15.90;80.50;;;;;;5074674;28;20023;-84
2022/08/02 01:20:37;;;;;;;3.65;0.80;;;15.90;80.50;;;;;;5075912;28;20032;-84
2022/08/02 01:23:22;;;;;;;5.45;1.00;;;15.90;80.30;;;;;;5074542;28;20029;-83
2022/08/02 01:26:17;;;;;;;4.40;1.13;;;15.90;80.10;;;;;;5075800;28;20153;-84
2022/08/02 01:29:21;;;;;;;5.47;1.00;;;15.80;79.80;;;;;;5057782;28;20021;-83
2022/08/02 01:32:18;;;;;;;5.68;1.00;;;15.80;79.50;;;;;;5014375;28;20036;-83
2022/08/02 01:35:10;;;;;;;5.13;0.90;;;15.80;79.50;;;;;;5057678;28;20016;-83
2022/08/02 01:37:53;;;;;;;6.63;0.93;;;15.70;79.50;;;;;;5057774;28;20017;-84
2022/08/02 01:40:30;;;;;;;3.50;1.00;;;15.70;79.50;;;;;;5075645;28;20025;-82
2022/08/02 01:42:57;;;;;;;2.78;0.90;;;15.70;79.60;;;;;;5074300;28;20021;-83
2022/08/02 01:45:27;;;;;;;2.60;0.90;;;15.70;79.70;;;;;;5074579;28;20388;-83
2022/08/02 01:47:54;;;;;;;4.38;1.00;;;15.70;79.70;;;;;;5074043;28;20052;-83
2022/08/02 01:50:25;;;;;;;3.60;1.10;;;15.60;79.70;;;;;;5057445;28;20020;-84
2022/08/02 01:52:54;;;;;;;3.33;0.70;;;15.60;79.80;;;;;;5075686;28;20032;-83
2022/08/02 01:55:27;;;;;;;3.92;0.90;;;15.60;79.80;;;;;;5057361;28;20020;-84
2022/08/02 01:57:57;;;;;;;5.68;1.27;;;15.60;80.00;;;;;;5057270;28;20031;-83
2022/08/02 02:00:27;;;;;;;5.63;1.10;;;15.60;80.10;;;;;;5075099;28;20100;-84
2022/08/02 02:02:56;;;;;;;7.93;1.27;;;15.60;80.20;;;;;;5057190;28;20032;-84
2022/08/02 02:05:25;;;;;;;7.50;1.30;;;15.50;80.30;;;;;;5057239;28;20131;-83
2022/08/02 02:07:54;;;;;;;4.50;1.30;;;15.50;81.10;;;;;;5074967;28;20056;-84
2022/08/02 02:10:26;;;;;;;6.57;1.17;;;15.50;80.70;;;;;;5075031;28;20530;-84
2022/08/02 02:12:53;;;;;;;4.53;1.27;;;15.50;80.90;;;;;;5075251;28;20028;-83
2022/08/02 02:15:22;;;;;;;4.72;1.17;;;15.50;81.10;;;;;;5041315;28;20029;-83
2022/08/02 02:17:50;;;;;;;5.10;1.38;;;15.50;81.20;;;;;;5056845;28;20025;-83
2022/08/02 02:20:19;;;;;;;3.75;1.30;;;15.40;81.30;;;;;;5074701;28;20021;-83
2022/08/02 02:22:45;;;;;;;6.07;1.20;;;15.40;81.30;;;;;;5074647;28;20042;-83
2022/08/02 02:25:13;;;;;;;5.00;1.30;;;15.40;81.30;;;;;;5074505;28;20494;-75
2022/08/02 02:27:47;;;;;;;4.93;1.50;;;15.40;81.40;;;;;;5074600;28;20108;-75
2022/08/02 02:30:13;;;;;;;8.38;1.85;;;15.40;81.50;;;;;;5056446;28;20021;-75
2022/08/02 02:32:41;;;;;;;7.25;1.73;;;15.40;81.50;;;;;;5040055;28;20421;-76
2022/08/02 02:35:09;;;;;;;5.15;1.25;;;15.30;81.50;;;;;;5073343;28;20100;-76
2022/08/02 02:37:36;;;;;;;4.18;1.58;;;15.30;81.60;;;;;;5074795;28;20044;-76
2022/08/02 02:40:03;;;;;;;6.15;1.30;;;15.30;81.60;;;;;;5074336;28;20028;-75
2022/08/02 02:42:31;;;;;;;5.40;1.77;;;15.30;81.70;;;;;;5074793;28;20099;-75
2022/08/02 02:44:58;;;;;;;3.30;1.20;;;15.30;81.90;;;;;;5072948;28;20035;-75
2022/08/02 02:47:27;;;;;;;4.05;1.80;;;15.30;82.10;;;;;;5056547;28;20044;-76
2022/08/02 02:49:54;;;;;;;6.30;1.50;;;15.30;82.20;;;;;;5056174;28;20499;-75
2022/08/02 02:52:19;;;;;;;6.78;2.30;;;15.30;82.40;;;;;;5057038;28;20043;-75
2022/08/02 02:54:47;;;;;;;5.55;1.73;;;15.30;83.20;;;;;;5074294;28;20032;-75
2022/08/02 02:57:14;;;;;;;5.50;1.50;;;15.30;82.70;;;;;;5074289;28;20099;-76
2022/08/02 02:59:41;;;;;;;4.90;1.75;;;15.30;82.80;;;;;;5056571;28;20403;-76
2022/08/02 03:02:09;;;;;;;3.85;1.42;;;15.30;82.80;;;;;;5055634;28;20134;-76
2022/08/02 03:04:36;;;;;;;6.10;1.75;;;15.30;83.40;;;;;;5073989;28;20033;-75
2022/08/02 03:07:01;;;;;;;7.63;2.28;;;15.30;83.40;;;;;;5074128;28;20029;-75
2022/08/02 03:09:27;;;;;;;4.68;1.67;;;15.30;82.90;;;;;;5072979;28;20093;-75
2022/08/02 03:11:54;;;;;;;9.48;1.90;;;15.30;82.90;;;;;;5056263;28;20342;-76
2022/08/02 03:14:21;;;;;;;6.80;2.08;;;15.30;83.00;;;;;;5056267;28;20025;-75
2022/08/02 03:16:49;;;;;;;4.75;2.15;;;15.30;83.10;;;;;;5055648;28;20107;-75
2022/08/02 03:19:16;;;;;;;9.52;2.22;;;15.30;83.20;;;;;;5072664;28;20060;-76
2022/08/02 03:21:43;;;;;;;5.38;1.63;;;15.30;83.40;;;;;;5071351;28;20503;-76
2022/08/02 03:24:09;;;;;;;7.25;1.58;;;15.30;83.40;;;;;;5054433;28;20028;-76
2022/08/02 03:26:35;;;;;;;5.68;1.70;;;15.20;83.30;;;;;;5055346;28;20028;-76
2022/08/02 03:29:01;;;;;;;6.45;2.28;;;15.30;83.40;;;;;;5073367;28;20025;-75
2022/08/02 03:31:27;;;;;;;7.43;2.35;;;15.20;83.40;;;;;;5055616;28;20499;-76
2022/08/02 03:33:55;;;;;;;5.97;2.15;;;15.30;83.50;;;;;;5039411;28;20025;-76
2022/08/02 03:36:22;;;;;;;6.18;1.88;;;15.20;83.60;;;;;;5073156;28;20020;-75
2022/08/02 03:38:50;;;;;;;5.00;1.65;;;15.20;83.70;;;;;;5055556;28;20016;-76
2022/08/02 03:41:17;;;;;;;5.43;1.88;;;15.30;83.80;;;;;;5055606;28;20107;-76
2022/08/02 03:43:45;;;;;;;5.60;2.08;;;15.30;83.80;;;;;;5055415;28;20025;-75
2022/08/02 03:46:12;;;;;;;6.47;2.08;;;15.30;84.00;;;;;;5039149;28;20515;-76
2022/08/02 03:48:38;;;;;;;8.05;2.22;;;15.40;84.20;;;;;;5073358;28;20476;-76
2022/08/02 03:51:05;;;;;;;7.63;2.15;;;15.40;84.30;;;;;;5055341;28;20025;-75
2022/08/02 03:53:31;;;;;;;5.35;1.80;;;15.50;84.40;;;;;;5039156;28;20021;-76
2022/08/02 03:55:58;;;;;;;4.65;1.77;;;15.40;84.40;;;;;;5073567;28;20028;-76
2022/08/02 03:58:24;;;;;;;5.28;1.73;;;15.50;84.50;;;;;;5073588;28;20024;-76
2022/08/02 04:00:52;;;;;;;6.03;1.83;;;15.50;84.60;;;;;;5055339;28;20054;-76
2022/08/02 04:03:18;;;;;;;8.43;2.50;;;15.50;84.60;;;;;;5055493;28;20025;-76
2022/08/02 04:05:43;;;;;;;5.28;1.98;;;15.50;84.70;;;;;;5055514;28;20052;-75
2022/08/02 04:08:09;;;;;;;6.38;2.13;;;15.60;84.70;;;;;;5038792;28;20042;-75
2022/08/02 04:11:29;;;;;;;5.95;1.55;;;15.60;84.70;;;;;;5038679;28;20468;-76
2022/08/02 04:13:23;;;;;;;4.55;1.52;;;15.60;84.70;;;;;;5074904;28;20040;-76
2022/08/02 04:15:52;;;;;;;8.23;1.67;;;15.60;84.70;;;;;;5077060;28;20027;-75
2022/08/02 04:18:21;;;;;;;6.65;1.98;;;15.70;84.80;;;;;;5059142;28;20024;-75
2022/08/02 04:20:48;;;;;;;6.70;1.90;;;15.70;84.80;;;;;;5076915;28;20024;-76
2022/08/02 04:23:16;;;;;;;5.78;1.88;;;15.70;84.80;;;;;;5077180;28;20028;-83
2022/08/02 04:25:43;;;;;;;5.78;2.08;;;15.70;84.80;;;;;;5059681;28;20069;-84
2022/08/02 04:28:10;;;;;;;6.35;1.98;;;15.70;85.40;;;;;;5076849;28;20052;-83
2022/08/02 04:30:38;;;;;;;5.93;2.30;;;15.80;84.80;;;;;;5059244;28;20024;-83
2022/08/02 04:33:04;;;;;;;5.28;2.40;;;15.80;85.40;;;;;;5076720;28;20024;-85
2022/08/02 04:35:30;;;;;;;7.75;2.20;;;15.80;84.80;;;;;;5059004;28;20489;-84
2022/08/02 04:37:56;;;;;;;7.15;2.15;;;15.80;84.80;;;;;;5058771;28;20039;-83
2022/08/02 04:40:21;;;;;;;7.38;2.10;;;15.70;84.70;;;;;;5042071;28;20036;-83
2022/08/02 04:42:47;;;;;;;6.57;2.05;;;15.80;84.80;;;;;;5076839;28;20029;-83
2022/08/02 04:45:14;;;;;;;8.05;2.47;;;15.80;84.70;;;;;;5041914;28;20100;-83
2022/08/02 04:47:40;;;;;;;5.38;1.88;;;15.80;84.70;;;;;;5058594;28;20133;-83
2022/08/02 04:50:06;;;;;;;6.75;2.08;;;15.80;84.80;;;;;;5076464;28;20108;-84
2022/08/02 04:52:31;;;;;;;6.68;1.88;;;15.90;84.90;;;;;;5059195;28;20025;-84
2022/08/02 04:54:57;;;;;;;5.28;1.98;;;15.90;85.00;;;;;;5076407;28;20350;-84
2022/08/02 05:00:08;;;;;;;9.30;2.03;;;15.90;85.00;;;;;;5061202;28;20078;-84
2022/08/02 05:02:34;;;;;;;6.95;1.92;;;16.00;85.10;;;;;;5075699;28;20028;-84
2022/08/02 05:05:00;;;;;;;4.45;1.75;;;15.90;85.00;;;;;;5076078;28;20051;-84
2022/08/02 05:07:26;;;;;;;6.07;2.05;;;16.00;85.80;;;;;;5057120;28;20033;-83
2022/08/02 05:09:51;;;;;;;6.78;1.95;;;16.00;85.20;;;;;;5075520;28;20485;-84
2022/08/02 05:12:20;;;;;;;6.65;1.85;;;16.00;85.20;;;;;;5087430;28;20025;-85
2022/08/02 05:14:46;;;;;;;4.70;1.67;;;16.00;85.80;;;;;;5067549;28;20028;-85
2022/08/02 05:17:12;;;;;;;8.52;2.05;;;16.00;85.20;;;;;;5091578;28;20028;-85
2022/08/02 05:19:38;;;;;;;9.00;2.08;;;16.10;85.30;;;;;;5043697;28;20090;-85
2022/08/02 05:22:03;;;;;;;5.53;2.10;;;16.10;85.20;;;;;;5058157;28;20029;-85
2022/08/02 05:24:29;;;;;;;4.85;2.00;;;16.10;85.30;;;;;;5041576;28;20472;-87
2022/08/02 05:26:54;;;;;;;11.15;2.55;;;16.10;85.20;;;;;;5041420;28;20032;-86
2022/08/02 05:29:21;;;;;;;8.02;2.15;;;16.20;85.30;;;;;;5024608;28;20029;-85
2022/08/02 05:31:47;;;;;;;6.95;2.30;;;16.20;85.20;;;;;;5041643;28;20017;-85
2022/08/02 05:34:13;;;;;;;3.78;1.60;;;16.30;85.20;;;;;;5041035;28;20031;-85
2022/08/02 05:36:38;;;;;;;7.47;2.33;;;16.30;85.20;;;;;;5024670;28;20507;-86
2022/08/02 05:39:04;;;;;;;4.85;2.05;;;16.30;85.20;;;;;;5057769;28;20040;-86
2022/08/02 05:41:29;;;;;;;8.05;1.90;;;16.30;85.20;;;;;;5041189;28;20048;-86
2022/08/02 05:43:55;;;;;;;7.60;2.03;;;16.40;85.20;;;;;;5058384;28;20043;-85
2022/08/02 05:46:21;;;;;;;8.48;2.05;;;16.40;85.10;;;;;;5074385;28;20040;-86
2022/08/02 05:48:46;;;;;;;6.00;1.92;;;16.50;85.10;;;;;;5075402;28;20381;-84
2022/08/02 05:51:35;;;;;;;7.80;2.17;;;16.50;85.10;;;;;;5057585;28;20064;-86
2022/08/02 05:54:16;;;;;;;6.30;1.95;;;16.50;85.00;;;;;;5055892;28;20032;-85
2022/08/02 05:57:00;;;;;;;9.15;1.90;;;16.60;85.00;;;;;;5084865;28;20029;-86
2022/08/02 05:59:31;;;;;;;9.00;2.58;;;16.70;84.90;;;;;;5066253;28;20028;-85
2022/08/02 06:02:03;;;;;;;8.00;2.00;;;16.70;84.70;;;;;;5057453;28;20027;-86
2022/08/02 06:04:55;;;;;;;4.60;1.92;;;16.70;84.70;;;;;;5054847;28;20041;-84
2022/08/02 06:07:22;;;;;;;7.57;2.03;;;16.80;84.70;;;;;;5048121;28;20041;-83
2022/08/02 06:09:49;;;;;;;8.40;1.75;;;16.80;84.70;;;;;;5054781;28;20040;-83
2022/08/02 06:12:16;;;;;;;5.43;1.88;;;16.80;84.80;;;;;;5062015;28;20017;-83
2022/08/02 06:14:42;;;;;;;7.15;2.10;;;16.90;85.00;;;;;;5067428;28;20033;-84
2022/08/02 06:17:08;;;;;;;9.60;3.08;;;16.90;85.00;;;;;;5036946;28;20057;-84
2022/08/02 06:19:37;;;;;;;7.03;2.50;;;17.00;85.20;;;;;;5054756;28;20063;-85
2022/08/02 06:22:16;;;;;;;5.43;2.20;;;17.00;85.20;;;;;;5054531;28;20029;-84
2022/08/02 06:24:44;;;;;;;7.60;2.25;;;17.10;85.20;;;;;;5054771;28;20069;-84
2022/08/02 06:27:13;;;;;;;8.93;2.38;;;17.20;85.30;;;;;;5054673;28;20025;-84
2022/08/02 06:29:43;;;;;;;7.82;2.42;;;17.30;85.40;;;;;;5053468;28;20021;-84
2022/08/02 06:32:09;;;;;;;10.82;2.65;;;17.30;85.50;;;;;;5053275;28;20013;-78
2022/08/02 06:34:40;;;;;;;8.45;2.65;;;17.40;85.50;;;;;;5036376;28;20070;-78
2022/08/02 06:37:55;;;;;;;7.47;2.65;;;17.40;85.60;;;;;;5036035;28;20103;-78
2022/08/02 06:40:28;;;;;;;4.97;2.10;;;17.50;85.60;;;;;;5012540;28;20095;-78
2022/08/02 06:43:17;;;;;;;5.55;2.47;;;17.60;85.50;;;;;;5012368;28;20030;-78
2022/08/02 06:45:43;;;;;;;5.68;2.03;;;17.70;86.10;;;;;;5043578;28;20041;-78
2022/08/02 06:48:10;;;;;;;6.63;2.17;;;17.70;85.40;;;;;;5052500;28;20032;-78
2022/08/02 06:50:40;;;;;;;5.45;2.08;;;17.80;85.50;;;;;;5036303;28;20021;-78
2022/08/02 06:53:08;;;;;;;6.00;2.38;;;17.80;85.60;;;;;;5053036;28;20017;-78
2022/08/02 06:55:44;;;;;;;5.68;2.05;;;17.90;85.70;;;;;;5053902;28;20132;-78
2022/08/02 06:58:11;;;;;;;4.43;1.70;;;17.90;85.70;;;;;;5020933;28;20045;-78
2022/08/02 07:00:37;;;;;;;5.65;1.83;;;18.00;85.90;;;;;;5052564;28;20040;-78
2022/08/02 07:03:04;;;;;;;5.97;2.53;;;18.00;85.90;;;;;;5036038;28;20025;-77
2022/08/02 07:05:30;;;;;;;5.68;1.63;;;18.10;86.70;;;;;;5036202;28;20052;-78
2022/08/02 07:07:55;;;;;;;6.40;1.95;;;18.20;86.20;;;;;;5036221;28;20068;-78
2022/08/02 07:10:21;;;;;;;10.85;1.80;;;18.30;86.30;;;;;;5035971;28;20040;-77
2022/08/02 07:12:47;;;;;;;5.80;1.48;;;18.30;86.40;;;;;;5035978;28;20021;-78
2022/08/02 07:15:12;;;;;;;6.15;2.10;;;18.40;86.50;;;;;;5036785;28;20052;-78
2022/08/02 07:17:38;;;;;;;5.45;1.73;;;18.50;86.60;;;;;;5035924;28;20017;-78
2022/08/02 07:20:05;;;;;;;4.82;1.92;;;18.50;86.50;;;;;;5053039;28;20035;-78
2022/08/02 07:22:30;;;;;;;8.13;1.80;;;18.60;86.60;;;;;;5052459;28;20457;-78
2022/08/02 07:24:58;;;;;;;7.35;2.60;;;18.70;86.60;;;;;;5035672;28;20116;-78
2022/08/02 07:27:25;;;;;;;5.95;2.60;;;18.80;87.30;;;;;;5053574;28;20033;-78
2022/08/02 07:29:51;;;;;;;4.43;1.70;;;18.80;86.50;;;;;;5053427;28;20037;-78
2022/08/02 07:32:19;;;;;;;8.52;2.55;;;18.90;86.60;;;;;;5052598;28;20073;-78
2022/08/02 07:34:46;;;;;;;5.82;1.70;;;19.10;86.70;;;;;;5053451;28;20028;-77
2022/08/02 07:37:12;;;;;;;6.00;2.65;;;19.10;86.60;;;;;;5052126;28;20060;-77
2022/08/02 07:39:38;;;;;;;6.68;2.40;;;19.20;86.60;;;;;;5052121;28;20079;-79
2022/08/02 07:42:03;;;;;;;5.93;2.70;;;19.30;86.70;;;;;;5035600;28;20029;-78
2022/08/02 07:44:33;;;;;;;8.18;3.42;;;19.40;86.60;;;;;;5035542;28;20051;-78
2022/08/02 07:47:06;;;;;;;5.18;2.97;;;19.50;86.60;;;;;;5036097;28;20029;-80
2022/08/02 07:49:31;;;;;;;7.60;3.60;;;19.60;86.50;;;;;;5035351;28;20040;-78
2022/08/02 07:51:57;;;;;;;6.43;3.05;;;19.70;86.30;;;;;;5035300;28;20027;-78
2022/08/02 07:54:24;;;;;;;7.13;3.03;;;19.70;86.30;;;;;;5035464;28;20033;-79
2022/08/02 07:56:50;;;;;;;6.05;3.65;;;19.80;86.30;;;;;;5035301;28;20017;-78
2022/08/02 07:59:16;;;;;;;7.30;4.35;;;19.80;86.20;;;;;;5035597;28;20063;-78
2022/08/02 08:01:42;;;;;;;10.23;4.45;;;19.90;86.00;;;;;;5035533;28;20420;-80
2022/08/02 08:04:07;;;;;;;8.85;4.85;;;20.00;85.90;;;;;;5035341;28;20029;-79
2022/08/02 08:06:33;;;;;;;9.70;4.97;;;20.00;85.70;;;;;;5035449;28;20087;-80
2022/08/02 08:08:59;;;;;;;6.63;4.68;;;20.10;85.50;;;;;;5051703;28;20128;-78
2022/08/02 08:11:25;;;;;;;10.35;4.80;;;20.10;85.40;;;;;;5053159;28;20018;-80
2022/08/02 08:13:51;;;;;;;9.30;6.15;;;20.10;85.30;;;;;;5052036;28;20489;-79
2022/08/02 08:16:17;;;;;;;9.25;5.28;;;20.20;85.30;;;;;;5051930;28;20029;-78
2022/08/02 08:18:43;;;;;;;10.95;4.65;;;20.30;85.90;;;;;;5035112;28;20053;-77
2022/08/02 08:21:09;;;;;;;9.68;5.22;;;20.30;85.20;;;;;;5035229;28;20035;-79
2022/08/02 08:23:35;;;;;;;9.18;5.40;;;20.40;85.20;;;;;;5051678;28;20502;-79
2022/08/02 08:26:02;;;;;;;10.98;5.15;;;20.50;85.10;;;;;;5052180;28;20032;-78
2022/08/02 08:28:27;;;;;;;8.40;5.05;;;20.50;84.90;;;;;;5051494;28;20028;-79
2022/08/02 08:30:53;;;;;;;9.45;5.00;;;20.60;84.80;;;;;;5035057;28;20025;-79
2022/08/02 08:33:19;;;;;;;9.70;5.00;;;20.70;84.70;;;;;;5034937;28;20492;-79
2022/08/02 08:35:45;;;;;;;8.73;4.57;;;20.80;84.50;;;;;;5051331;28;20493;-79
2022/08/02 08:38:10;;;;;;;7.53;4.30;;;20.80;84.20;;;;;;5035526;28;20029;-79
2022/08/02 08:40:36;;;;;;;7.75;4.45;;;20.90;84.00;;;;;;5035397;28;20477;-79
2022/08/02 08:43:02;;;;;;;8.48;4.05;;;21.10;83.80;;;;;;5034799;28;20029;-78
2022/08/02 08:45:28;;;;;;;8.00;4.10;;;21.10;83.40;;;;;;5034923;28;20431;-81
2022/08/02 08:48:06;;;;;;;7.68;4.10;;;21.20;83.70;;;;;;5052878;28;20029;-79
2022/08/02 08:50:35;;;;;;;6.53;3.42;;;21.30;82.40;;;;;;5052530;28;20029;-79
2022/08/02 08:53:03;;;;;;;6.30;3.83;;;21.40;82.00;;;;;;5052703;28;20021;-79
2022/08/02 08:55:30;;;;;;;7.53;3.97;;;21.40;81.60;;;;;;5051319;28;20017;-79
2022/08/02 08:57:58;;;;;;;7.10;3.22;;;21.50;81.40;;;;;;5051354;28;20384;-78
2022/08/02 09:00:23;;;;;;;7.70;3.20;;;21.60;81.10;;;;;;5054605;28;20049;-79
2022/08/02 09:02:49;;;;;;;5.03;2.67;;;21.70;81.00;;;;;;5038329;28;20060;-79
2022/08/02 09:05:16;;;;;;;7.00;3.30;;;21.80;80.80;;;;;;5021459;28;20128;-78
2022/08/02 09:07:43;;;;;;;5.95;3.42;;;21.80;80.40;;;;;;5038188;28;20449;-79
2022/08/02 09:10:32;;;;;;;6.57;2.95;;;21.90;79.90;;;;;;5038234;28;20107;-79
2022/08/02 09:13:12;;;;;;;5.53;2.28;;;22.00;79.30;;;;;;5054800;28;20024;-80
2022/08/02 09:15:39;;;;;;;4.30;1.58;;;22.10;78.70;;;;;;5056218;28;20029;-80
2022/08/02 09:18:06;;;;;;;3.08;1.45;;;22.20;78.00;;;;;;5054663;28;20036;-79
2022/08/02 09:20:53;;;;;;;4.38;1.10;;;22.20;77.20;;;;;;5054511;28;20017;-78
2022/08/02 09:23:21;;;;;;;2.50;1.02;;;22.30;76.60;;;;;;5055030;28;20364;-80
2022/08/02 09:26:03;;;;;;;2.25;0.93;;;22.30;75.70;;;;;;5038187;28;20025;-78
2022/08/02 09:28:32;;;;;;;3.88;1.25;;;22.40;75.00;;;;;;5054410;28;20377;-79
2022/08/02 09:31:09;;;;;;;3.33;1.02;;;22.40;74.40;;;;;;5054554;28;20021;-78
2022/08/02 09:33:36;;;;;;;2.38;0.85;;;22.50;74.30;;;;;;5055662;28;20033;-79
2022/08/02 09:36:05;;;;;;;4.22;1.15;;;22.50;74.20;;;;;;5055673;28;20068;-78
2022/08/02 09:38:31;;;;;;;3.67;1.13;;;22.60;73.70;;;;;;5054195;28;20044;-78
2022/08/02 09:40:58;;;;;;;4.35;1.20;;;22.70;73.50;;;;;;5037889;28;20059;-78
2022/08/02 09:43:38;;;;;;;3.80;1.10;;;22.70;74.10;;;;;;5054219;28;20095;-79
2022/08/02 09:46:22;;;;;;;2.65;1.00;;;22.80;73.30;;;;;;5054173;28;20021;-79
2022/08/02 09:48:50;;;;;;;2.33;0.95;;;22.80;73.20;;;;;;5055263;28;20047;-79
2022/08/02 09:51:18;;;;;;;4.22;1.20;;;22.90;73.20;;;;;;5054243;28;20063;-79
2022/08/02 09:53:43;;;;;;;4.57;1.13;;;22.90;73.20;;;;;;5037551;28;20049;-78
2022/08/02 09:56:09;;;;;;;3.70;1.20;;;23.00;73.30;;;;;;5053932;28;20060;-80
2022/08/02 09:58:38;;;;;;;3.20;0.98;;;23.00;73.10;;;;;;5053841;28;20055;-79
2022/08/02 10:01:05;;;;;;;2.95;1.08;;;23.20;72.80;;;;;;5055161;28;20025;-79
2022/08/02 10:03:30;;;;;;;3.03;0.70;;;23.30;72.60;;;;;;5053781;28;20037;-78
2022/08/02 10:06:00;;;;;;;2.40;0.95;;;23.30;72.50;;;;;;5036987;28;20555;-80
2022/08/02 10:08:30;;;;;;;2.78;1.08;;;23.40;72.10;;;;;;5046448;28;20463;-80
2022/08/02 10:11:00;;;;;;;2.55;0.80;;;23.50;71.70;;;;;;5035592;28;20025;-81
2022/08/02 10:13:30;;;;;;;2.63;1.20;;;23.50;71.10;;;;;;5040149;28;20124;-77
2022/08/02 10:15:56;;;;;;;2.95;1.10;;;23.60;70.90;;;;;;5074732;28;20028;-77
2022/08/02 10:18:21;;;;;;;2.90;0.90;;;23.60;70.70;;;;;;5056326;28;20036;-76
2022/08/02 10:20:49;;;;;;;2.95;0.70;;;23.70;70.50;;;;;;5040031;28;20051;-76
2022/08/02 10:23:19;;;;;;;1.63;0.80;;;23.80;70.40;;;;;;5040027;28;20020;-76
2022/08/02 10:25:47;;;;;;;1.33;0.73;;;23.90;70.30;;;;;;5074327;28;20065;-76
2022/08/02 10:28:17;;;;;;;4.93;1.00;;;24.00;70.00;;;;;;5039721;28;20425;-76
2022/08/02 10:30:47;;;;;;;2.40;0.80;;;24.10;69.60;;;;;;5056429;28;20031;-76
2022/08/02 10:33:16;;;;;;;1.77;0.90;;;24.30;69.60;;;;;;5056267;28;20021;-77
2022/08/02 10:35:43;;;;;;;1.80;0.60;;;24.40;68.50;;;;;;5056257;28;20111;-77
2022/08/02 10:38:11;;;;;;;2.35;0.60;;;24.50;68.00;;;;;;5056635;28;20028;-77
2022/08/02 10:40:45;;;;;;;1.67;0.70;;;24.60;67.50;;;;;;5039655;28;20028;-77
2022/08/02 10:43:11;;;;;;;1.33;0.60;;;24.80;66.90;;;;;;5056237;28;20036;-77
2022/08/02 10:45:38;;;;;;;2.35;0.60;;;24.90;65.90;;;;;;5039500;28;20379;-76
2022/08/02 10:48:08;;;;;;;1.75;0.50;;;25.00;65.40;;;;;;5074103;28;20116;-77
2022/08/02 10:50:49;;;;;;;2.60;0.52;;;25.10;64.50;;;;;;5055959;28;20373;-75
2022/08/02 10:53:22;;;;;;;1.38;0.60;;;25.20;63.90;;;;;;5055915;28;20025;-77
2022/08/02 10:55:48;;;;;;;3.70;0.47;;;25.20;63.20;;;;;;5056689;28;20084;-77
2022/08/02 10:58:30;;;;;;;1.55;0.50;;;25.40;63.90;;;;;;5056002;28;20048;-75
2022/08/02 11:00:57;;;;;;;1.55;0.60;;;25.60;62.40;;;;;;5055783;28;20099;-75
2022/08/02 11:03:28;;;;;;;1.10;0.50;;;25.70;61.80;;;;;;5039175;28;20058;-76
2022/08/02 11:06:06;;;;;;;1.83;0.47;;;25.80;60.90;;;;;;5055963;28;20523;-75
2022/08/02 11:08:32;;;;;;;6.70;0.65;;;26.00;60.20;;;;;;5073584;28;20425;-76
2022/08/02 11:11:00;;;;;;;2.92;0.55;;;26.20;60.40;;;;;;5055764;28;20024;-77
2022/08/02 11:13:26;;;;;;;2.10;0.40;;;26.50;59.90;;;;;;5055893;28;20035;-77
2022/08/02 11:16:01;;;;;;;0.90;0.30;;;26.60;58.80;;;;;;5055831;28;20482;-77
2022/08/02 11:18:45;;;;;;;1.20;0.35;;;26.80;58.50;;;;;;5072324;28;20115;-76
2022/08/02 11:21:24;;;;;;;1.63;0.60;;;26.90;57.90;;;;;;5055414;28;20469;-76
2022/08/02 11:23:50;;;;;;;1.00;0.50;;;27.10;57.80;;;;;;5055611;28;20031;-77
2022/08/02 11:26:31;;;;;;;3.35;0.77;;;27.20;57.80;;;;;;5039158;28;20028;-77
2022/08/02 11:28:58;;;;;;;2.10;0.70;;;27.40;57.50;;;;;;5073311;28;20028;-76
2022/08/02 11:31:24;;;;;;;1.83;0.50;;;27.50;57.30;;;;;;5073316;28;20074;-77
2022/08/02 11:33:51;;;;;;;2.42;0.60;;;27.60;56.70;;;;;;5055277;28;20449;-76
2022/08/02 11:36:17;;;;;;;1.10;0.50;;;27.70;56.10;;;;;;5055568;28;20025;-78
2022/08/02 11:38:43;;;;;;;4.38;0.60;;;27.80;56.40;;;;;;5038675;28;20040;-76
2022/08/02 11:41:09;;;;;;;2.45;0.50;;;28.00;55.40;;;;;;5055621;28;20016;-77
2022/08/02 11:43:36;;;;;;;2.03;0.60;;;28.10;55.30;;;;;;5073154;28;20036;-76
2022/08/02 11:46:03;;;;;;;1.35;0.50;;;28.30;54.60;;;;;;5055207;28;20025;-76
2022/08/02 11:48:40;;;;;;;1.35;0.40;;;28.50;53.80;;;;;;5038444;28;20043;-76
2022/08/02 11:51:11;;;;;;;0.90;0.40;;;28.70;53.20;;;;;;5073286;28;20020;-76
2022/08/02 11:53:49;;;;;;;2.53;0.50;;;28.90;53.00;;;;;;5073140;28;20035;-78
2022/08/02 11:56:17;;;;;;;0.80;0.47;;;29.00;52.70;;;;;;5073067;28;20399;-77
2022/08/02 11:59:09;;;;;;;1.05;0.40;;;29.10;52.40;;;;;;5073069;28;20358;-76
2022/08/02 12:01:37;;;;;;;1.50;0.57;;;29.20;51.60;;;;;;5038592;28;20029;-77
2022/08/02 12:04:05;;;;;;;2.05;0.60;;;29.30;51.90;;;;;;5073031;28;20103;-75
2022/08/02 12:06:31;;;;;;;1.50;0.50;;;29.40;51.80;;;;;;5038267;28;20542;-76
2022/08/02 12:09:12;;;;;;;4.45;0.57;;;29.60;51.60;;;;;;5054997;28;20456;-76
2022/08/02 12:11:38;;;;;;;1.35;0.40;;;29.80;50.90;;;;;;5072904;28;20029;-77
2022/08/02 12:14:05;;;;;;;1.73;0.50;;;30.00;50.90;;;;;;5038496;28;20028;-78
2022/08/02 12:19:28;;;;;;;0.88;0.30;;;30.40;49.50;;;;;;5073226;28;20542;-77
2022/08/02 12:22:10;;;;;;;1.00;0.30;;;30.60;49.50;;;;;;5072994;28;20028;-76
2022/08/02 12:24:38;;;;;;;0.70;0.30;;;30.70;49.00;;;;;;5054993;28;20028;-77
2022/08/02 12:27:04;;;;;;;3.25;0.60;;;30.90;48.70;;;;;;5054771;28;20059;-77
2022/08/02 12:29:36;;;;;;;1.42;0.40;;;31.20;48.00;;;;;;5037972;28;20031;-79
2022/08/02 12:32:02;;;;;;;2.00;0.47;;;31.40;47.30;;;;;;5070782;28;20035;-77
2022/08/02 12:34:30;;;;;;;1.52;0.50;;;31.50;47.10;;;;;;5056784;28;20394;-77
2022/08/02 12:37:24;;;;;;;0.85;0.30;;;31.60;46.70;;;;;;5076665;28;20021;-76
2022/08/02 12:39:50;;;;;;;;;;;31.80;46.10;;;;;;5058852;28;20028;-78
2022/08/02 12:42:15;;;;;;;1.65;0.40;;;32.00;46.10;;;;;;5075669;28;19912;-77
2022/08/02 12:45:00;;;;;;;4.63;0.40;;;32.10;46.10;;;;;;5058530;28;20024;-76
2022/08/02 12:47:26;;;;;;;1.70;0.30;;;32.30;45.50;;;;;;5058435;28;20061;-77
2022/08/02 12:50:23;;;;;;;0.90;0.40;;;32.40;45.70;;;;;;5076557;28;20056;-77
2022/08/02 12:52:49;;;;;;;1.20;0.38;;;32.60;44.70;;;;;;5076241;28;20455;-77
2022/08/02 12:55:26;;;;;;;0.95;0.38;;;32.80;44.80;;;;;;5076381;28;20044;-79
2022/08/02 12:58:10;;;;;;;1.17;0.30;;;32.90;44.10;;;;;;5058110;28;20032;-78
2022/08/02 13:00:37;;;;;;;1.30;0.40;;;33.10;43.50;;;;;;5058615;28;20024;-77
2022/08/02 13:03:04;;;;;;;1.92;0.40;;;33.20;43.90;;;;;;5058276;28;20021;-76
2022/08/02 13:05:34;;;;;;;0.55;0.32;;;33.30;43.50;;;;;;5058880;28;20165;-77